Raymond, MS (39154)

5:16 PM CDT on April 29, 2017 (GMT -0500)
Countrywood | | Change Station

Elev 338 ft 32.32 °N, 90.34 °W | Updated 2 minutes ago

Haze
Haze
85.0 °F
Feels Like 90 °F
N
1.2
Wind Variable Wind from NE

Today
High -- | Low -- °F
--% Chance of Precip.
Yesterday
High -- | Low -- °F
Precip. -- in
Pressure 29.82 in
Visibility 5.0 miles
Clouds Few 4300 ft
Few 4900 ft
Heat Index 90 °F
Dew Point 71 °F
Humidity 62%
Rainfall 0.00 in
Snow Depth Not available.
6:17 AM 7:41 PM
Waxing Crescent, 17% visible
METAR KJVW 292155Z AUTO 14012G21KT 5SM HZ FEW043 FEW049 29/22 A2982 RMK AO2 PWINO
Pressure 29.82 in
Visibility 5.0 miles
Clouds Few 4300 ft
Few 4900 ft
Heat Index 90 °F
Dew Point 71 °F
Humidity 62%
Rainfall 0.00 in
Snow Depth Not available.
6:17 AM 7:41 PM
Waxing Crescent, 17% visible
METAR KJVW 292155Z AUTO 14012G21KT 5SM HZ FEW043 FEW049 29/22 A2982 RMK AO2 PWINO

Get Severe Weather Alerts

Thanks for signing up!

Be on the lookout for a verification email in your inbox.

You'll start receiving the daily forecast at 8 AM.

×

10-Day Weather Forecast

Almanac

Astronomy

Apr. 29, 2017 Rise Set
Actual Time
Civil Twilight
Nautical Twilight
Astronomical Twilight
Moon
Length of Visible Light
Length of Day
Tomorrow will be .
, % of the Moon is Illuminated

Today's Extremes

State Highs State Lows

Community

WunderPhotos

WunderBlog® & News

Nearby

Air Quality

  Air Quality AQ Index Pollutant
Not available.

Snow Depth

Station Depth Elevation

Earthquake Activity

City Distance Mag. Time & Date
Minimum magnitude displayed is 2.5.

Coastal Water Temperatures

Place Temperature

Stations

Nearby Weather Stations

Station Location Temp. Windchill Dew Point Humidity Wind Precip. Elev Updated Type
                   

Watches & Warnings

There are currently no watches in effect.